sensor_id;sensor_type;location;lat;lon;timestamp;P1;durP1;ratioP1;P2;durP2;ratioP2
44704;SDS011;30431;48.520;9.046;2024-02-16T09:22:07;8.20;;;4.43;;
44704;SDS011;30431;48.520;9.046;2024-02-16T09:24:34;9.90;;;4.93;;
44704;SDS011;30431;48.520;9.046;2024-02-16T09:27:05;9.48;;;4.15;;
44704;SDS011;30431;48.520;9.046;2024-02-16T09:29:36;6.25;;;4.40;;
44704;SDS011;30431;48.520;9.046;2024-02-16T09:32:06;5.53;;;3.55;;
44704;SDS011;30431;48.520;9.046;2024-02-16T09:34:33;8.45;;;3.95;;
44704;SDS011;30431;48.520;9.046;2024-02-16T09:37:03;10.32;;;4.40;;
44704;SDS011;30431;48.520;9.046;2024-02-16T09:39:30;7.65;;;4.38;;
44704;SDS011;30431;48.520;9.046;2024-02-16T09:41:58;8.40;;;4.28;;
44704;SDS011;30431;48.520;9.046;2024-02-16T09:44:25;7.45;;;4.13;;
44704;SDS011;30431;48.520;9.046;2024-02-16T09:46:57;6.57;;;4.13;;
44704;SDS011;30431;48.520;9.046;2024-02-16T09:49:30;8.05;;;4.07;;
44704;SDS011;30431;48.520;9.046;2024-02-16T09:52:06;12.73;;;5.65;;
44704;SDS011;30431;48.520;9.046;2024-02-16T09:54:37;26.35;;;18.45;;
44704;SDS011;30431;48.520;9.046;2024-02-16T09:57:07;9.18;;;4.93;;
44704;SDS011;30431;48.520;9.046;2024-02-16T09:59:34;19.67;;;5.20;;
44704;SDS011;30431;48.520;9.046;2024-02-16T10:02:03;6.78;;;3.97;;
44704;SDS011;30431;48.520;9.046;2024-02-16T10:04:31;8.77;;;4.63;;
44704;SDS011;30431;48.520;9.046;2024-02-16T10:07:02;10.35;;;4.18;;
44704;SDS011;30431;48.520;9.046;2024-02-16T10:09:38;8.60;;;4.43;;
44704;SDS011;30431;48.520;9.046;2024-02-16T10:12:17;9.20;;;4.45;;
44704;SDS011;30431;48.520;9.046;2024-02-16T10:14:53;6.55;;;4.22;;
44704;SDS011;30431;48.520;9.046;2024-02-16T10:17:21;7.03;;;4.05;;
44704;SDS011;30431;48.520;9.046;2024-02-16T10:19:56;9.52;;;4.10;;
44704;SDS011;30431;48.520;9.046;2024-02-16T10:22:24;6.70;;;3.97;;
44704;SDS011;30431;48.520;9.046;2024-02-16T10:24:52;7.30;;;4.30;;
44704;SDS011;30431;48.520;9.046;2024-02-16T10:27:19;10.23;;;3.83;;
44704;SDS011;30431;48.520;9.046;2024-02-16T10:29:52;10.25;;;4.03;;
44704;SDS011;30431;48.520;9.046;2024-02-16T10:32:20;7.07;;;3.90;;
44704;SDS011;30431;48.520;9.046;2024-02-16T10:34:51;10.65;;;4.60;;
44704;SDS011;30431;48.520;9.046;2024-02-16T10:37:20;6.90;;;4.40;;
44704;SDS011;30431;48.520;9.046;2024-02-16T10:39:48;7.70;;;5.05;;
44704;SDS011;30431;48.520;9.046;2024-02-16T10:42:20;8.95;;;4.50;;
44704;SDS011;30431;48.520;9.046;2024-02-16T10:44:50;7.60;;;4.78;;
44704;SDS011;30431;48.520;9.046;2024-02-16T10:47:24;7.90;;;4.30;;
44704;SDS011;30431;48.520;9.046;2024-02-16T10:49:51;7.40;;;3.97;;
44704;SDS011;30431;48.520;9.046;2024-02-16T10:52:18;6.15;;;3.38;;
44704;SDS011;30431;48.520;9.046;2024-02-16T10:54:48;7.22;;;4.15;;
44704;SDS011;30431;48.520;9.046;2024-02-16T10:57:19;5.55;;;3.50;;
44704;SDS011;30431;48.520;9.046;2024-02-16T10:59:47;8.50;;;3.55;;
44704;SDS011;30431;48.520;9.046;2024-02-16T11:02:19;10.52;;;3.58;;
44704;SDS011;30431;48.520;9.046;2024-02-16T11:04:46;11.32;;;6.55;;
44704;SDS011;30431;48.520;9.046;2024-02-16T11:07:16;9.48;;;3.67;;
44704;SDS011;30431;48.520;9.046;2024-02-16T11:09:45;10.00;;;4.10;;
44704;SDS011;30431;48.520;9.046;2024-02-16T11:12:13;6.05;;;3.13;;
44704;SDS011;30431;48.520;9.046;2024-02-16T11:14:45;6.32;;;3.10;;
44704;SDS011;30431;48.520;9.046;2024-02-16T11:17:13;7.07;;;3.20;;
44704;SDS011;30431;48.520;9.046;2024-02-16T11:19:47;8.80;;;3.17;;
44704;SDS011;30431;48.520;9.046;2024-02-16T11:22:15;5.47;;;2.63;;
44704;SDS011;30431;48.520;9.046;2024-02-16T11:24:48;7.18;;;3.38;;
44704;SDS011;30431;48.520;9.046;2024-02-16T11:27:18;5.78;;;2.58;;
44704;SDS011;30431;48.520;9.046;2024-02-16T11:29:47;5.07;;;2.70;;
44704;SDS011;30431;48.520;9.046;2024-02-16T11:32:18;7.25;;;2.80;;
44704;SDS011;30431;48.520;9.046;2024-02-16T11:34:46;6.97;;;2.92;;
44704;SDS011;30431;48.520;9.046;2024-02-16T11:37:14;9.02;;;3.05;;
44704;SDS011;30431;48.520;9.046;2024-02-16T11:39:49;5.18;;;3.00;;
44704;SDS011;30431;48.520;9.046;2024-02-16T11:42:22;14.05;;;6.43;;
44704;SDS011;30431;48.520;9.046;2024-02-16T11:44:50;10.40;;;4.53;;
44704;SDS011;30431;48.520;9.046;2024-02-16T11:47:19;5.05;;;3.05;;
44704;SDS011;30431;48.520;9.046;2024-02-16T11:50:05;6.38;;;2.83;;
44704;SDS011;30431;48.520;9.046;2024-02-16T11:52:33;11.35;;;2.70;;
44704;SDS011;30431;48.520;9.046;2024-02-16T11:55:04;7.78;;;3.13;;
44704;SDS011;30431;48.520;9.046;2024-02-16T11:57:35;8.23;;;3.00;;
44704;SDS011;30431;48.520;9.046;2024-02-16T12:00:05;4.90;;;3.03;;
44704;SDS011;30431;48.520;9.046;2024-02-16T12:02:38;9.77;;;2.88;;
44704;SDS011;30431;48.520;9.046;2024-02-16T12:05:13;6.55;;;2.65;;
44704;SDS011;30431;48.520;9.046;2024-02-16T12:07:43;6.28;;;2.75;;
44704;SDS011;30431;48.520;9.046;2024-02-16T12:10:15;5.93;;;3.40;;
44704;SDS011;30431;48.520;9.046;2024-02-16T12:12:42;6.88;;;2.65;;
44704;SDS011;30431;48.520;9.046;2024-02-16T12:15:10;7.18;;;2.35;;
44704;SDS011;30431;48.520;9.046;2024-02-16T12:17:40;4.15;;;2.30;;
44704;SDS011;30431;48.520;9.046;2024-02-16T12:20:14;5.95;;;2.50;;
44704;SDS011;30431;48.520;9.046;2024-02-16T12:22:44;9.20;;;5.25;;
44704;SDS011;30431;48.520;9.046;2024-02-16T12:25:26;6.13;;;3.20;;
44704;SDS011;30431;48.520;9.046;2024-02-16T12:27:53;5.88;;;2.20;;
44704;SDS011;30431;48.520;9.046;2024-02-16T12:30:22;8.20;;;2.80;;
44704;SDS011;30431;48.520;9.046;2024-02-16T12:32:52;4.43;;;2.75;;
44704;SDS011;30431;48.520;9.046;2024-02-16T12:35:22;5.88;;;2.83;;
44704;SDS011;30431;48.520;9.046;2024-02-16T12:37:50;7.07;;;2.88;;
44704;SDS011;30431;48.520;9.046;2024-02-16T12:42:44;6.50;;;3.30;;
44704;SDS011;30431;48.520;9.046;2024-02-16T12:45:14;5.90;;;3.13;;
44704;SDS011;30431;48.520;9.046;2024-02-16T12:47:46;5.57;;;3.38;;
44704;SDS011;30431;48.520;9.046;2024-02-16T12:50:14;5.97;;;2.50;;
44704;SDS011;30431;48.520;9.046;2024-02-16T12:52:46;5.38;;;3.08;;
44704;SDS011;30431;48.520;9.046;2024-02-16T12:55:25;5.43;;;3.03;;
44704;SDS011;30431;48.520;9.046;2024-02-16T12:57:52;5.43;;;2.58;;
44704;SDS011;30431;48.520;9.046;2024-02-16T13:00:23;6.53;;;2.88;;
44704;SDS011;30431;48.520;9.046;2024-02-16T13:02:59;6.43;;;3.10;;
44704;SDS011;30431;48.520;9.046;2024-02-16T13:05:26;6.40;;;2.85;;
44704;SDS011;30431;48.520;9.046;2024-02-16T13:07:58;5.72;;;2.65;;
44704;SDS011;30431;48.520;9.046;2024-02-16T13:13:05;5.75;;;2.50;;
44704;SDS011;30431;48.520;9.046;2024-02-16T13:15:32;7.85;;;4.70;;
44704;SDS011;30431;48.520;9.046;2024-02-16T13:20:57;6.53;;;2.58;;
44704;SDS011;30431;48.520;9.046;2024-02-16T13:23:25;7.57;;;3.38;;
44704;SDS011;30431;48.520;9.046;2024-02-16T13:25:51;7.03;;;2.72;;
44704;SDS011;30431;48.520;9.046;2024-02-16T13:28:23;5.93;;;2.55;;
44704;SDS011;30431;48.520;9.046;2024-02-16T13:30:53;5.70;;;2.70;;
44704;SDS011;30431;48.520;9.046;2024-02-16T13:33:23;7.97;;;2.92;;
44704;SDS011;30431;48.520;9.046;2024-02-16T13:35:50;6.53;;;3.10;;
44704;SDS011;30431;48.520;9.046;2024-02-16T13:38:17;8.25;;;3.05;;
44704;SDS011;30431;48.520;9.046;2024-02-16T13:40:44;6.88;;;3.13;;
44704;SDS011;30431;48.520;9.046;2024-02-16T13:43:11;9.18;;;2.80;;
44704;SDS011;30431;48.520;9.046;2024-02-16T13:45:52;10.20;;;3.40;;
44704;SDS011;30431;48.520;9.046;2024-02-16T13:48:20;9.57;;;3.08;;
44704;SDS011;30431;48.520;9.046;2024-02-16T13:50:47;9.23;;;3.47;;
44704;SDS011;30431;48.520;9.046;2024-02-16T13:53:15;8.43;;;3.28;;
44704;SDS011;30431;48.520;9.046;2024-02-16T13:55:47;9.90;;;4.10;;
44704;SDS011;30431;48.520;9.046;2024-02-16T13:58:15;9.32;;;3.50;;
44704;SDS011;30431;48.520;9.046;2024-02-16T14:03:13;8.00;;;3.20;;
44704;SDS011;30431;48.520;9.046;2024-02-16T14:05:41;8.48;;;2.85;;
44704;SDS011;30431;48.520;9.046;2024-02-16T14:08:14;10.32;;;3.28;;
44704;SDS011;30431;48.520;9.046;2024-02-16T14:10:45;10.25;;;2.90;;
44704;SDS011;30431;48.520;9.046;2024-02-16T14:13:12;7.70;;;2.88;;
44704;SDS011;30431;48.520;9.046;2024-02-16T14:15:45;9.93;;;2.70;;
44704;SDS011;30431;48.520;9.046;2024-02-16T14:18:12;11.85;;;3.15;;
44704;SDS011;30431;48.520;9.046;2024-02-16T14:20:59;7.95;;;2.65;;
44704;SDS011;30431;48.520;9.046;2024-02-16T14:23:29;5.72;;;2.53;;
44704;SDS011;30431;48.520;9.046;2024-02-16T14:25:59;12.02;;;3.03;;
44704;SDS011;30431;48.520;9.046;2024-02-16T14:28:30;5.78;;;2.55;;
44704;SDS011;30431;48.520;9.046;2024-02-16T14:30:57;9.30;;;2.55;;
44704;SDS011;30431;48.520;9.046;2024-02-16T14:33:28;10.57;;;3.00;;
44704;SDS011;30431;48.520;9.046;2024-02-16T14:36:01;6.03;;;2.80;;
44704;SDS011;30431;48.520;9.046;2024-02-16T14:38:28;11.30;;;3.20;;
44704;SDS011;30431;48.520;9.046;2024-02-16T14:40:56;8.57;;;3.10;;
44704;SDS011;30431;48.520;9.046;2024-02-16T14:43:30;9.32;;;3.25;;
44704;SDS011;30431;48.520;9.046;2024-02-16T14:46:00;8.07;;;2.83;;
44704;SDS011;30431;48.520;9.046;2024-02-16T14:48:33;8.27;;;2.80;;
44704;SDS011;30431;48.520;9.046;2024-02-16T14:51:05;10.40;;;3.03;;
44704;SDS011;30431;48.520;9.046;2024-02-16T14:53:33;6.72;;;2.45;;
44704;SDS011;30431;48.520;9.046;2024-02-16T14:56:00;13.50;;;2.40;;
44704;SDS011;30431;48.520;9.046;2024-02-16T14:58:29;8.07;;;2.75;;
44704;SDS011;30431;48.520;9.046;2024-02-16T15:01:01;11.07;;;2.72;;
44704;SDS011;30431;48.520;9.046;2024-02-16T15:03:29;7.07;;;2.83;;
44704;SDS011;30431;48.520;9.046;2024-02-16T15:06:03;7.03;;;3.05;;
44704;SDS011;30431;48.520;9.046;2024-02-16T15:08:31;10.18;;;2.72;;
44704;SDS011;30431;48.520;9.046;2024-02-16T15:10:58;12.45;;;2.90;;
44704;SDS011;30431;48.520;9.046;2024-02-16T15:13:25;7.97;;;3.05;;
44704;SDS011;30431;48.520;9.046;2024-02-16T15:15:53;5.93;;;2.67;;
44704;SDS011;30431;48.520;9.046;2024-02-16T15:18:21;8.95;;;2.83;;
44704;SDS011;30431;48.520;9.046;2024-02-16T15:23:21;6.25;;;2.85;;
44704;SDS011;30431;48.520;9.046;2024-02-16T15:25:48;10.68;;;3.75;;
44704;SDS011;30431;48.520;9.046;2024-02-16T15:28:18;9.80;;;2.97;;
44704;SDS011;30431;48.520;9.046;2024-02-16T15:30:45;5.88;;;2.90;;
44704;SDS011;30431;48.520;9.046;2024-02-16T15:33:12;8.25;;;2.80;;
44704;SDS011;30431;48.520;9.046;2024-02-16T15:35:39;6.72;;;2.97;;
44704;SDS011;30431;48.520;9.046;2024-02-16T15:38:06;5.90;;;2.75;;
44704;SDS011;30431;48.520;9.046;2024-02-16T15:40:33;6.47;;;2.63;;
44704;SDS011;30431;48.520;9.046;2024-02-16T15:43:04;8.38;;;2.75;;
44704;SDS011;30431;48.520;9.046;2024-02-16T15:45:33;8.55;;;3.55;;
44704;SDS011;30431;48.520;9.046;2024-02-16T15:48:10;7.60;;;2.95;;
44704;SDS011;30431;48.520;9.046;2024-02-16T15:50:41;7.85;;;3.22;;
44704;SDS011;30431;48.520;9.046;2024-02-16T15:53:10;9.52;;;3.03;;
44704;SDS011;30431;48.520;9.046;2024-02-16T15:55:38;5.90;;;2.50;;
44704;SDS011;30431;48.520;9.046;2024-02-16T15:58:08;8.30;;;2.83;;
44704;SDS011;30431;48.520;9.046;2024-02-16T16:00:35;7.90;;;2.15;;
44704;SDS011;30431;48.520;9.046;2024-02-16T16:08:02;7.72;;;2.70;;
44704;SDS011;30431;48.520;9.046;2024-02-16T16:10:29;5.53;;;2.72;;
44704;SDS011;30431;48.520;9.046;2024-02-16T16:12:57;9.93;;;2.85;;
44704;SDS011;30431;48.520;9.046;2024-02-16T16:15:32;6.18;;;2.30;;
44704;SDS011;30431;48.520;9.046;2024-02-16T16:18:03;8.73;;;2.70;;
44704;SDS011;30431;48.520;9.046;2024-02-16T16:20:32;7.93;;;2.50;;
44704;SDS011;30431;48.520;9.046;2024-02-16T16:23:02;8.25;;;2.72;;
44704;SDS011;30431;48.520;9.046;2024-02-16T16:25:30;10.45;;;3.05;;
44704;SDS011;30431;48.520;9.046;2024-02-16T16:28:00;8.00;;;2.80;;
44704;SDS011;30431;48.520;9.046;2024-02-16T16:32:59;9.38;;;2.65;;
44704;SDS011;30431;48.520;9.046;2024-02-16T16:35:26;7.43;;;2.80;;
44704;SDS011;30431;48.520;9.046;2024-02-16T16:37:54;9.50;;;3.25;;
44704;SDS011;30431;48.520;9.046;2024-02-16T16:40:29;6.55;;;3.08;;
44704;SDS011;30431;48.520;9.046;2024-02-16T16:42:56;11.60;;;3.28;;
44704;SDS011;30431;48.520;9.046;2024-02-16T16:45:25;15.63;;;3.80;;
44704;SDS011;30431;48.520;9.046;2024-02-16T16:47:55;9.68;;;3.22;;
44704;SDS011;30431;48.520;9.046;2024-02-16T16:50:26;6.30;;;3.05;;
44704;SDS011;30431;48.520;9.046;2024-02-16T16:52:55;8.82;;;2.90;;
44704;SDS011;30431;48.520;9.046;2024-02-16T16:55:24;6.30;;;2.72;;
44704;SDS011;30431;48.520;9.046;2024-02-16T16:57:55;5.53;;;2.83;;
44704;SDS011;30431;48.520;9.046;2024-02-16T17:02:50;6.25;;;3.10;;
44704;SDS011;30431;48.520;9.046;2024-02-16T17:05:17;4.85;;;3.10;;
44704;SDS011;30431;48.520;9.046;2024-02-16T17:07:47;10.50;;;3.40;;
44704;SDS011;30431;48.520;9.046;2024-02-16T17:10:17;7.00;;;3.13;;
44704;SDS011;30431;48.520;9.046;2024-02-16T17:12:45;7.32;;;3.45;;
44704;SDS011;30431;48.520;9.046;2024-02-16T17:15:16;9.25;;;3.03;;
44704;SDS011;30431;48.520;9.046;2024-02-16T17:17:46;7.43;;;3.33;;
44704;SDS011;30431;48.520;9.046;2024-02-16T17:20:19;6.78;;;3.83;;
44704;SDS011;30431;48.520;9.046;2024-02-16T17:22:52;11.57;;;3.38;;
44704;SDS011;30431;48.520;9.046;2024-02-16T17:25:21;6.78;;;3.13;;
44704;SDS011;30431;48.520;9.046;2024-02-16T17:27:50;9.32;;;3.33;;
44704;SDS011;30431;48.520;9.046;2024-02-16T17:30:18;9.65;;;3.78;;
44704;SDS011;30431;48.520;9.046;2024-02-16T17:32:49;9.82;;;4.10;;
44704;SDS011;30431;48.520;9.046;2024-02-16T17:35:18;11.02;;;5.22;;
44704;SDS011;30431;48.520;9.046;2024-02-16T17:37:49;13.90;;;6.53;;
44704;SDS011;30431;48.520;9.046;2024-02-16T17:40:19;12.68;;;6.57;;
44704;SDS011;30431;48.520;9.046;2024-02-16T17:42:46;19.42;;;7.45;;
44704;SDS011;30431;48.520;9.046;2024-02-16T17:45:13;15.82;;;5.28;;
44704;SDS011;30431;48.520;9.046;2024-02-16T17:47:44;9.45;;;4.72;;
44704;SDS011;30431;48.520;9.046;2024-02-16T17:50:12;7.50;;;4.07;;
44704;SDS011;30431;48.520;9.046;2024-02-16T17:52:39;9.88;;;4.22;;
44704;SDS011;30431;48.520;9.046;2024-02-16T17:55:07;7.78;;;3.63;;
44704;SDS011;30431;48.520;9.046;2024-02-16T17:57:34;7.75;;;3.88;;
44704;SDS011;30431;48.520;9.046;2024-02-16T18:00:03;8.50;;;4.40;;
44704;SDS011;30431;48.520;9.046;2024-02-16T18:02:32;8.82;;;4.35;;
44704;SDS011;30431;48.520;9.046;2024-02-16T18:05:09;7.67;;;4.20;;
44704;SDS011;30431;48.520;9.046;2024-02-16T18:07:39;10.82;;;5.95;;
44704;SDS011;30431;48.520;9.046;2024-02-16T18:12:34;13.15;;;7.22;;
44704;SDS011;30431;48.520;9.046;2024-02-16T18:15:02;15.98;;;6.60;;
44704;SDS011;30431;48.520;9.046;2024-02-16T18:17:31;18.10;;;6.47;;
44704;SDS011;30431;48.520;9.046;2024-02-16T18:19:58;8.32;;;4.20;;
44704;SDS011;30431;48.520;9.046;2024-02-16T18:22:25;6.30;;;4.00;;
44704;SDS011;30431;48.520;9.046;2024-02-16T18:24:55;8.30;;;4.47;;
44704;SDS011;30431;48.520;9.046;2024-02-16T18:32:18;27.95;;;17.38;;
44704;SDS011;30431;48.520;9.046;2024-02-16T18:34:47;12.93;;;6.55;;
44704;SDS011;30431;48.520;9.046;2024-02-16T18:37:14;9.80;;;4.82;;
44704;SDS011;30431;48.520;9.046;2024-02-16T18:39:44;9.10;;;4.78;;
44704;SDS011;30431;48.520;9.046;2024-02-16T18:44:43;7.40;;;4.22;;
44704;SDS011;30431;48.520;9.046;2024-02-16T18:47:13;6.97;;;3.78;;
44704;SDS011;30431;48.520;9.046;2024-02-16T18:49:45;11.15;;;4.95;;
44704;SDS011;30431;48.520;9.046;2024-02-16T18:52:14;10.20;;;4.10;;
44704;SDS011;30431;48.520;9.046;2024-02-16T18:54:44;8.23;;;3.97;;
44704;SDS011;30431;48.520;9.046;2024-02-16T18:57:13;9.82;;;5.13;;
44704;SDS011;30431;48.520;9.046;2024-02-16T18:59:42;8.70;;;4.20;;
44704;SDS011;30431;48.520;9.046;2024-02-16T19:02:10;8.90;;;4.55;;
44704;SDS011;30431;48.520;9.046;2024-02-16T19:04:36;7.13;;;4.30;;
44704;SDS011;30431;48.520;9.046;2024-02-16T19:07:06;11.15;;;5.10;;
44704;SDS011;30431;48.520;9.046;2024-02-16T19:16:58;10.68;;;3.65;;
44704;SDS011;30431;48.520;9.046;2024-02-16T19:19:25;5.35;;;3.70;;
44704;SDS011;30431;48.520;9.046;2024-02-16T19:21:59;9.30;;;4.00;;
44704;SDS011;30431;48.520;9.046;2024-02-16T19:24:26;13.20;;;4.47;;
44704;SDS011;30431;48.520;9.046;2024-02-16T19:27:05;7.90;;;3.58;;
44704;SDS011;30431;48.520;9.046;2024-02-16T19:29:37;8.15;;;4.05;;
44704;SDS011;30431;48.520;9.046;2024-02-16T19:32:04;6.70;;;3.92;;
44704;SDS011;30431;48.520;9.046;2024-02-16T19:34:32;7.57;;;4.32;;
44704;SDS011;30431;48.520;9.046;2024-02-16T19:37:00;9.05;;;4.93;;
44704;SDS011;30431;48.520;9.046;2024-02-16T19:39:27;10.68;;;5.47;;
44704;SDS011;30431;48.520;9.046;2024-02-16T19:41:54;14.60;;;6.45;;
44704;SDS011;30431;48.520;9.046;2024-02-16T19:44:21;9.93;;;5.88;;
44704;SDS011;30431;48.520;9.046;2024-02-16T19:46:52;17.02;;;9.98;;
44704;SDS011;30431;48.520;9.046;2024-02-16T19:49:19;11.02;;;5.97;;
44704;SDS011;30431;48.520;9.046;2024-02-16T19:51:50;10.35;;;6.40;;
44704;SDS011;30431;48.520;9.046;2024-02-16T19:54:21;9.73;;;4.07;;
44704;SDS011;30431;48.520;9.046;2024-02-16T19:56:51;6.65;;;3.67;;
44704;SDS011;30431;48.520;9.046;2024-02-16T19:59:18;7.05;;;4.00;;
44704;SDS011;30431;48.520;9.046;2024-02-16T20:01:46;6.18;;;3.45;;
44704;SDS011;30431;48.520;9.046;2024-02-16T20:04:13;6.35;;;4.05;;
44704;SDS011;30431;48.520;9.046;2024-02-16T20:06:40;8.95;;;4.65;;
44704;SDS011;30431;48.520;9.046;2024-02-16T20:09:10;10.18;;;4.85;;
44704;SDS011;30431;48.520;9.046;2024-02-16T20:11:37;8.50;;;4.70;;
44704;SDS011;30431;48.520;9.046;2024-02-16T20:14:08;7.30;;;4.63;;
44704;SDS011;30431;48.520;9.046;2024-02-16T20:16:38;6.45;;;3.97;;
44704;SDS011;30431;48.520;9.046;2024-02-16T20:19:05;9.82;;;4.70;;
44704;SDS011;30431;48.520;9.046;2024-02-16T20:21:35;7.80;;;4.30;;
44704;SDS011;30431;48.520;9.046;2024-02-16T20:24:03;8.88;;;4.50;;
44704;SDS011;30431;48.520;9.046;2024-02-16T20:26:30;8.00;;;4.38;;
44704;SDS011;30431;48.520;9.046;2024-02-16T20:28:58;8.45;;;4.50;;
44704;SDS011;30431;48.520;9.046;2024-02-16T20:31:25;8.60;;;5.70;;
44704;SDS011;30431;48.520;9.046;2024-02-16T20:33:52;11.57;;;5.93;;
44704;SDS011;30431;48.520;9.046;2024-02-16T20:38:47;13.68;;;6.97;;
44704;SDS011;30431;48.520;9.046;2024-02-16T20:41:15;14.77;;;8.15;;
44704;SDS011;30431;48.520;9.046;2024-02-16T20:43:42;12.05;;;6.88;;
44704;SDS011;30431;48.520;9.046;2024-02-16T20:48:36;9.77;;;6.03;;
44704;SDS011;30431;48.520;9.046;2024-02-16T20:51:04;12.70;;;6.65;;
44704;SDS011;30431;48.520;9.046;2024-02-16T20:53:31;13.63;;;6.32;;
44704;SDS011;30431;48.520;9.046;2024-02-16T20:56:04;10.43;;;6.90;;
44704;SDS011;30431;48.520;9.046;2024-02-16T21:01:01;12.25;;;6.63;;
44704;SDS011;30431;48.520;9.046;2024-02-16T21:03:30;13.40;;;7.07;;
44704;SDS011;30431;48.520;9.046;2024-02-16T21:05:58;13.48;;;7.28;;
44704;SDS011;30431;48.520;9.046;2024-02-16T21:08:28;12.18;;;6.38;;
44704;SDS011;30431;48.520;9.046;2024-02-16T21:10:55;11.43;;;6.97;;
44704;SDS011;30431;48.520;9.046;2024-02-16T21:13:23;11.73;;;7.05;;
44704;SDS011;30431;48.520;9.046;2024-02-16T21:15:50;9.45;;;6.57;;
44704;SDS011;30431;48.520;9.046;2024-02-16T21:18:20;9.27;;;5.63;;
44704;SDS011;30431;48.520;9.046;2024-02-16T21:20:50;13.73;;;5.57;;
44704;SDS011;30431;48.520;9.046;2024-02-16T21:23:18;8.98;;;5.63;;
44704;SDS011;30431;48.520;9.046;2024-02-16T21:25:45;12.15;;;7.13;;
44704;SDS011;30431;48.520;9.046;2024-02-16T21:28:14;13.65;;;6.53;;
44704;SDS011;30431;48.520;9.046;2024-02-16T21:30:44;13.82;;;7.63;;
44704;SDS011;30431;48.520;9.046;2024-02-16T21:33:14;12.40;;;7.82;;
44704;SDS011;30431;48.520;9.046;2024-02-16T21:35:43;12.00;;;6.70;;
44704;SDS011;30431;48.520;9.046;2024-02-16T21:38:11;12.25;;;7.05;;
44704;SDS011;30431;48.520;9.046;2024-02-16T21:40:38;12.73;;;7.25;;
44704;SDS011;30431;48.520;9.046;2024-02-16T21:43:11;10.65;;;6.70;;
44704;SDS011;30431;48.520;9.046;2024-02-16T21:45:41;11.30;;;6.80;;
44704;SDS011;30431;48.520;9.046;2024-02-16T21:48:08;9.85;;;6.55;;
44704;SDS011;30431;48.520;9.046;2024-02-16T21:50:38;11.90;;;6.53;;
44704;SDS011;30431;48.520;9.046;2024-02-16T21:53:08;9.48;;;6.10;;
44704;SDS011;30431;48.520;9.046;2024-02-16T21:55:40;9.90;;;6.00;;
44704;SDS011;30431;48.520;9.046;2024-02-16T21:58:09;12.10;;;6.88;;
44704;SDS011;30431;48.520;9.046;2024-02-16T22:00:36;10.65;;;6.82;;
44704;SDS011;30431;48.520;9.046;2024-02-16T22:03:05;11.20;;;6.30;;
44704;SDS011;30431;48.520;9.046;2024-02-16T22:05:35;12.32;;;6.70;;
44704;SDS011;30431;48.520;9.046;2024-02-16T22:08:02;13.27;;;8.98;;
44704;SDS011;30431;48.520;9.046;2024-02-16T22:13:02;11.32;;;7.05;;
44704;SDS011;30431;48.520;9.046;2024-02-16T22:15:29;10.25;;;5.75;;
44704;SDS011;30431;48.520;9.046;2024-02-16T22:17:56;8.88;;;5.30;;
44704;SDS011;30431;48.520;9.046;2024-02-16T22:20:23;9.95;;;5.25;;
44704;SDS011;30431;48.520;9.046;2024-02-16T22:22:52;9.35;;;5.40;;
44704;SDS011;30431;48.520;9.046;2024-02-16T22:25:22;12.48;;;6.07;;
44704;SDS011;30431;48.520;9.046;2024-02-16T22:27:50;9.32;;;6.05;;
44704;SDS011;30431;48.520;9.046;2024-02-16T22:30:21;10.00;;;6.38;;
44704;SDS011;30431;48.520;9.046;2024-02-16T22:32:48;13.32;;;6.22;;
44704;SDS011;30431;48.520;9.046;2024-02-16T22:35:20;18.92;;;11.15;;
44704;SDS011;30431;48.520;9.046;2024-02-16T22:37:49;12.98;;;7.72;;
44704;SDS011;30431;48.520;9.046;2024-02-16T22:40:16;14.35;;;7.35;;
44704;SDS011;30431;48.520;9.046;2024-02-16T22:42:44;13.32;;;8.52;;
44704;SDS011;30431;48.520;9.046;2024-02-16T22:45:13;19.52;;;11.50;;
44704;SDS011;30431;48.520;9.046;2024-02-16T22:47:42;13.48;;;9.05;;
44704;SDS011;30431;48.520;9.046;2024-02-16T22:50:13;13.35;;;8.77;;
44704;SDS011;30431;48.520;9.046;2024-02-16T22:52:40;17.23;;;8.88;;
44704;SDS011;30431;48.520;9.046;2024-02-16T22:55:08;15.30;;;8.48;;
44704;SDS011;30431;48.520;9.046;2024-02-16T22:57:35;13.40;;;8.05;;
44704;SDS011;30431;48.520;9.046;2024-02-16T23:00:04;11.43;;;7.13;;
44704;SDS011;30431;48.520;9.046;2024-02-16T23:02:44;10.18;;;6.47;;
44704;SDS011;30431;48.520;9.046;2024-02-16T23:05:11;14.05;;;6.90;;
44704;SDS011;30431;48.520;9.046;2024-02-16T23:07:38;12.60;;;7.50;;
44704;SDS011;30431;48.520;9.046;2024-02-16T23:10:05;14.55;;;7.32;;
44704;SDS011;30431;48.520;9.046;2024-02-16T23:12:38;14.02;;;6.68;;
44704;SDS011;30431;48.520;9.046;2024-02-16T23:15:12;11.05;;;6.88;;
44704;SDS011;30431;48.520;9.046;2024-02-16T23:17:41;15.07;;;7.05;;
44704;SDS011;30431;48.520;9.046;2024-02-16T23:20:09;13.30;;;7.15;;
44704;SDS011;30431;48.520;9.046;2024-02-16T23:22:56;12.60;;;6.80;;
44704;SDS011;30431;48.520;9.046;2024-02-16T23:25:28;12.82;;;6.55;;
44704;SDS011;30431;48.520;9.046;2024-02-16T23:27:56;12.38;;;6.50;;
44704;SDS011;30431;48.520;9.046;2024-02-16T23:30:24;12.10;;;6.68;;
44704;SDS011;30431;48.520;9.046;2024-02-16T23:32:52;10.63;;;6.35;;
44704;SDS011;30431;48.520;9.046;2024-02-16T23:35:20;10.45;;;6.05;;
44704;SDS011;30431;48.520;9.046;2024-02-16T23:37:50;13.90;;;6.80;;
44704;SDS011;30431;48.520;9.046;2024-02-16T23:40:22;11.45;;;6.43;;
44704;SDS011;30431;48.520;9.046;2024-02-16T23:42:51;13.65;;;6.93;;
44704;SDS011;30431;48.520;9.046;2024-02-16T23:45:20;8.48;;;5.50;;
44704;SDS011;30431;48.520;9.046;2024-02-16T23:47:52;14.05;;;6.10;;
44704;SDS011;30431;48.520;9.046;2024-02-16T23:50:24;9.70;;;5.30;;
44704;SDS011;30431;48.520;9.046;2024-02-16T23:52:53;10.98;;;5.20;;
44704;SDS011;30431;48.520;9.046;2024-02-16T23:55:22;8.40;;;4.85;;
44704;SDS011;30431;48.520;9.046;2024-02-16T23:57:49;10.07;;;5.45;;
